createdAt,value
2019-05-21T00:00:44.797Z,17.00
2019-05-21T00:03:15.670Z,17.00
2019-05-21T00:05:46.280Z,17.00
2019-05-21T00:08:17.046Z,17.00
2019-05-21T00:10:47.842Z,16.90
2019-05-21T00:13:19.424Z,16.90
2019-05-21T00:15:50.129Z,16.90
2019-05-21T00:18:20.966Z,16.90
2019-05-21T00:20:52.210Z,16.80
2019-05-21T00:23:23.028Z,16.80
2019-05-21T00:25:53.906Z,16.80
2019-05-21T00:28:40.676Z,16.80
2019-05-21T00:31:46.906Z,16.80
2019-05-21T00:34:54.258Z,16.80
2019-05-21T00:38:00.589Z,16.80
2019-05-21T00:41:07.270Z,16.80
2019-05-21T00:43:53.838Z,16.70
2019-05-21T00:46:24.830Z,16.70
2019-05-21T00:48:55.386Z,16.60
2019-05-21T00:51:26.637Z,16.60
2019-05-21T00:53:58.280Z,16.60
2019-05-21T00:56:28.809Z,16.60
2019-05-21T00:58:59.362Z,16.50
2019-05-21T01:01:29.916Z,16.50
2019-05-21T01:04:01.022Z,16.50
2019-05-21T01:06:31.861Z,16.50
2019-05-21T01:09:03.206Z,16.40
2019-05-21T01:11:33.853Z,16.40
2019-05-21T01:14:04.581Z,16.40
2019-05-21T01:16:35.277Z,16.30
2019-05-21T01:19:06.009Z,16.30
2019-05-21T01:21:36.606Z,16.30
2019-05-21T01:24:07.730Z,16.30
2019-05-21T01:26:38.547Z,16.30
2019-05-21T01:29:09.355Z,16.30
2019-05-21T01:31:39.911Z,16.30
2019-05-21T01:34:11.532Z,16.20
2019-05-21T01:36:42.431Z,16.20
2019-05-21T01:39:13.038Z,16.20
2019-05-21T01:41:43.617Z,16.10
2019-05-21T01:44:14.409Z,16.00
2019-05-21T01:46:46.135Z,15.90
2019-05-21T01:49:16.718Z,15.90
2019-05-21T01:51:48.430Z,15.80
2019-05-21T01:54:19.246Z,15.80
2019-05-21T01:56:50.049Z,15.80
2019-05-21T01:59:20.918Z,15.70
2019-05-21T02:01:51.494Z,15.70
2019-05-21T02:04:22.276Z,15.60
2019-05-21T02:06:53.029Z,15.50
2019-05-21T02:09:23.724Z,15.50
2019-05-21T02:11:54.470Z,15.50
2019-05-21T02:14:25.301Z,15.40
2019-05-21T02:16:56.134Z,15.30
2019-05-21T02:19:26.990Z,15.30
2019-05-21T02:21:57.805Z,15.30
2019-05-21T02:24:28.431Z,15.20
2019-05-21T02:26:59.221Z,15.20
2019-05-21T02:29:31.020Z,15.20
2019-05-21T02:32:01.777Z,15.20
2019-05-21T02:34:32.682Z,15.10
2019-05-21T02:37:06.142Z,15.10
2019-05-21T02:39:35.860Z,15.10
2019-05-21T02:42:06.734Z,15.10
2019-05-21T02:44:38.397Z,15.10
2019-05-21T02:47:09.054Z,15.10
2019-05-21T02:49:39.572Z,15.10
2019-05-21T02:52:10.122Z,15.10
2019-05-21T02:54:42.039Z,15.10
2019-05-21T02:57:12.706Z,15.10
2019-05-21T02:59:44.794Z,15.00
2019-05-21T03:02:36.242Z,15.00
2019-05-21T03:05:07.788Z,15.10
2019-05-21T03:07:38.251Z,15.00
2019-05-21T03:10:09.183Z,15.00
2019-05-21T03:12:40.077Z,15.00
2019-05-21T03:15:11.091Z,15.00
2019-05-21T03:17:41.807Z,15.00
2019-05-21T03:20:13.732Z,15.00
2019-05-21T03:22:44.313Z,15.00
2019-05-21T03:25:15.511Z,15.00
2019-05-21T03:27:46.063Z,15.00
2019-05-21T03:30:17.305Z,15.00
2019-05-21T03:32:49.213Z,15.10
2019-05-21T03:35:20.152Z,15.10
2019-05-21T03:37:50.711Z,15.10
2019-05-21T03:40:21.432Z,15.00
2019-05-21T03:42:52.244Z,15.10
2019-05-21T03:45:23.087Z,15.10
2019-05-21T03:47:53.910Z,15.10
2019-05-21T03:50:25.503Z,15.10
2019-05-21T03:52:56.515Z,15.10
2019-05-21T03:55:27.351Z,15.20
2019-05-21T03:57:58.182Z,15.20
2019-05-21T04:00:30.189Z,15.20
2019-05-21T04:03:01.092Z,15.20
2019-05-21T04:05:31.810Z,15.20
2019-05-21T04:08:03.683Z,15.20
2019-05-21T04:10:34.308Z,15.20
2019-05-21T04:13:11.124Z,15.20
2019-05-21T04:15:49.392Z,15.30
2019-05-21T04:18:24.749Z,15.30
2019-05-21T04:20:55.747Z,15.30
2019-05-21T04:23:28.083Z,15.40
2019-05-21T04:25:58.953Z,15.40
2019-05-21T04:28:29.738Z,15.40
2019-05-21T04:31:00.590Z,15.40
2019-05-21T04:33:31.413Z,15.40
2019-05-21T04:36:02.285Z,15.50
2019-05-21T04:38:33.231Z,15.50
2019-05-21T04:41:03.707Z,15.50
2019-05-21T04:43:34.455Z,15.60
2019-05-21T04:46:05.247Z,15.60
2019-05-21T04:48:37.135Z,15.60
2019-05-21T04:51:07.922Z,15.70
2019-05-21T04:53:38.727Z,15.70
2019-05-21T04:56:09.360Z,15.70
2019-05-21T04:58:40.082Z,15.80
2019-05-21T05:01:10.737Z,15.80
2019-05-21T05:03:41.238Z,15.90
2019-05-21T05:06:12.023Z,15.90
2019-05-21T05:08:42.601Z,16.00
2019-05-21T05:11:13.165Z,16.00
2019-05-21T05:13:43.879Z,16.10
2019-05-21T05:16:14.621Z,16.10
2019-05-21T05:18:45.453Z,16.20
2019-05-21T05:21:16.250Z,16.30
2019-05-21T05:23:46.929Z,16.30
2019-05-21T05:26:17.783Z,16.40
2019-05-21T05:28:48.604Z,16.50
2019-05-21T05:31:19.243Z,16.60
2019-05-21T05:33:49.861Z,16.70
2019-05-21T05:36:20.836Z,16.80
2019-05-21T05:38:51.641Z,16.90
2019-05-21T05:41:22.533Z,17.10
2019-05-21T05:43:54.046Z,17.20
2019-05-21T05:46:24.892Z,17.20
2019-05-21T05:49:02.030Z,17.40
2019-05-21T05:51:33.063Z,17.40
2019-05-21T05:54:03.490Z,17.50
2019-05-21T05:56:34.261Z,17.70
2019-05-21T05:59:05.140Z,17.70
2019-05-21T06:01:35.710Z,17.80
2019-05-21T06:04:06.790Z,17.80
2019-05-21T06:06:37.464Z,17.80
2019-05-21T06:09:08.148Z,17.90
2019-05-21T06:11:38.773Z,17.90
2019-05-21T06:14:09.366Z,18.00
2019-05-21T06:16:40.356Z,18.10
2019-05-21T06:19:10.964Z,18.20
2019-05-21T06:21:41.802Z,18.30
2019-05-21T06:24:13.633Z,18.30
2019-05-21T06:26:44.226Z,18.40
2019-05-21T06:29:15.038Z,18.40
2019-05-21T06:31:46.002Z,18.50
2019-05-21T06:34:16.876Z,18.50
2019-05-21T06:36:47.485Z,18.60
2019-05-21T06:39:18.530Z,18.70
2019-05-21T06:41:49.334Z,18.80
2019-05-21T06:44:20.227Z,18.90
2019-05-21T06:46:50.938Z,19.10
2019-05-21T06:49:22.792Z,19.20
2019-05-21T06:51:53.653Z,19.40
2019-05-21T06:54:24.420Z,19.50
2019-05-21T06:56:55.290Z,19.70
2019-05-21T06:59:25.809Z,19.90
2019-05-21T07:01:56.550Z,20.00
2019-05-21T07:04:27.543Z,20.20
2019-05-21T07:06:58.132Z,20.30
2019-05-21T07:09:28.986Z,20.50
2019-05-21T07:11:59.744Z,20.70
2019-05-21T07:14:30.521Z,20.80
2019-05-21T07:17:01.375Z,20.90
2019-05-21T07:19:32.198Z,21.10
2019-05-21T07:22:12.069Z,21.10
2019-05-21T07:24:35.198Z,21.20
2019-05-21T07:27:05.970Z,21.20
2019-05-21T07:29:36.545Z,21.50
2019-05-21T07:32:07.300Z,21.80
2019-05-21T07:34:37.930Z,22.00
2019-05-21T07:37:08.452Z,22.30
2019-05-21T07:39:39.214Z,22.40
2019-05-21T07:42:10.134Z,22.60
2019-05-21T07:44:40.709Z,22.70
2019-05-21T07:47:11.217Z,22.80
2019-05-21T07:49:41.753Z,23.00
2019-05-21T07:52:12.500Z,23.20
2019-05-21T07:54:43.087Z,23.30
2019-05-21T07:57:13.835Z,23.60
2019-05-21T07:59:44.699Z,23.70
2019-05-21T08:02:15.640Z,23.80
2019-05-21T08:04:46.366Z,23.90
2019-05-21T08:07:17.187Z,23.90
2019-05-21T08:09:49.007Z,24.00
2019-05-21T08:12:37.526Z,24.10
2019-05-21T08:14:52.490Z,24.30
2019-05-21T08:17:23.295Z,24.40
2019-05-21T08:19:53.958Z,24.50
2019-05-21T08:22:24.689Z,24.70
2019-05-21T08:24:55.646Z,24.80
2019-05-21T08:27:26.118Z,25.00
2019-05-21T08:29:57.178Z,25.10
2019-05-21T08:32:28.077Z,25.20
2019-05-21T08:34:58.880Z,25.40
2019-05-21T08:37:29.727Z,25.60
2019-05-21T08:40:00.662Z,25.70
2019-05-21T08:42:31.234Z,25.90
2019-05-21T08:45:02.849Z,26.10
2019-05-21T08:47:34.059Z,26.40
2019-05-21T08:50:05.554Z,26.70
2019-05-21T08:52:36.025Z,26.90
2019-05-21T08:55:06.978Z,27.10
2019-05-21T08:57:37.663Z,27.20
2019-05-21T09:00:10.156Z,27.30
2019-05-21T09:02:41.041Z,27.40
2019-05-21T09:05:12.826Z,27.50
2019-05-21T09:07:43.942Z,27.70
2019-05-21T09:10:16.548Z,28.10
2019-05-21T09:12:47.110Z,28.40
2019-05-21T09:15:19.655Z,28.70
2019-05-21T09:17:50.462Z,29.20
2019-05-21T09:20:21.557Z,29.50
2019-05-21T09:22:52.514Z,29.40
2019-05-21T09:25:23.305Z,29.40
2019-05-21T09:27:53.889Z,29.40
2019-05-21T09:30:24.897Z,29.40
2019-05-21T09:32:55.789Z,29.50
2019-05-21T09:35:26.654Z,29.50
2019-05-21T09:37:57.469Z,29.60
2019-05-21T09:40:28.703Z,29.70
2019-05-21T09:42:59.684Z,29.90
2019-05-21T09:45:30.615Z,30.10
2019-05-21T09:48:01.564Z,29.90
2019-05-21T09:50:32.334Z,29.60
2019-05-21T09:53:03.110Z,29.50
2019-05-21T09:55:33.946Z,29.50
2019-05-21T09:58:33.125Z,29.60
2019-05-21T10:01:21.370Z,29.80
2019-05-21T10:03:54.952Z,30.10
2019-05-21T10:06:25.837Z,30.40
2019-05-21T10:08:56.656Z,30.60
2019-05-21T10:11:27.337Z,30.90
2019-05-21T10:13:59.766Z,31.00
2019-05-21T10:16:30.213Z,31.30
2019-05-21T10:19:00.962Z,31.20
2019-05-21T10:21:31.772Z,31.30
2019-05-21T10:24:02.403Z,31.50
2019-05-21T10:26:32.929Z,31.50
2019-05-21T10:29:03.807Z,31.70
2019-05-21T10:31:34.510Z,31.90
2019-05-21T10:34:06.010Z,32.00
2019-05-21T10:36:36.583Z,32.10
2019-05-21T10:39:08.057Z,32.20
2019-05-21T10:41:38.549Z,32.20
2019-05-21T10:44:09.265Z,32.20
2019-05-21T10:46:40.151Z,32.20
2019-05-21T10:49:11.010Z,32.10
2019-05-21T10:51:41.601Z,32.20
2019-05-21T10:54:12.390Z,32.30
2019-05-21T10:56:47.787Z,32.30
2019-05-21T10:59:15.660Z,32.40
2019-05-21T11:02:01.811Z,32.50
2019-05-21T11:04:54.195Z,32.30
2019-05-21T11:07:24.939Z,32.50
2019-05-21T11:09:55.833Z,32.60
2019-05-21T11:12:26.858Z,32.70
2019-05-21T11:14:57.783Z,32.70
2019-05-21T11:17:28.612Z,32.90
2019-05-21T11:19:59.434Z,33.00
2019-05-21T11:22:30.301Z,33.00
2019-05-21T11:25:01.022Z,33.20
2019-05-21T11:27:31.942Z,33.30
2019-05-21T11:30:03.008Z,33.10
2019-05-21T11:32:35.849Z,33.00
2019-05-21T11:35:07.273Z,33.10
2019-05-21T11:37:37.847Z,33.20
2019-05-21T11:40:09.418Z,33.30
2019-05-21T11:42:40.193Z,33.30
2019-05-21T11:45:11.982Z,33.20
2019-05-21T11:47:42.648Z,33.20
2019-05-21T11:50:13.673Z,33.10
2019-05-21T11:52:44.429Z,32.90
2019-05-21T11:55:15.845Z,32.70
2019-05-21T11:57:46.366Z,32.60
2019-05-21T12:00:21.515Z,32.60
2019-05-21T12:02:51.251Z,32.60
2019-05-21T12:05:23.153Z,32.50
2019-05-21T12:07:53.779Z,32.40
2019-05-21T12:10:24.290Z,32.30
2019-05-21T12:12:55.083Z,32.20
2019-05-21T12:15:25.805Z,32.10
2019-05-21T12:17:56.695Z,32.00
2019-05-21T12:20:36.767Z,31.80
2019-05-21T12:22:59.929Z,31.50
2019-05-21T12:25:30.949Z,31.20
2019-05-21T12:28:01.677Z,30.90
2019-05-21T12:30:32.398Z,30.60
2019-05-21T12:33:03.269Z,30.50
2019-05-21T12:35:34.077Z,30.40
2019-05-21T12:38:05.275Z,30.40
2019-05-21T12:40:35.826Z,30.40
2019-05-21T12:43:08.514Z,30.40
2019-05-21T12:45:38.760Z,30.40
2019-05-21T12:48:09.566Z,30.30
2019-05-21T12:50:40.383Z,30.30
2019-05-21T12:53:10.958Z,30.30
2019-05-21T12:55:41.789Z,30.30
2019-05-21T12:58:14.364Z,30.30
2019-05-21T13:00:45.113Z,30.30
2019-05-21T13:03:15.826Z,30.40
2019-05-21T13:05:46.602Z,30.40
2019-05-21T13:08:17.209Z,30.40
2019-05-21T13:10:48.040Z,30.40
2019-05-21T13:13:18.615Z,30.50
2019-05-21T13:15:49.130Z,30.40
2019-05-21T13:18:19.961Z,30.30
2019-05-21T13:20:50.563Z,30.30
2019-05-21T13:23:21.205Z,30.20
2019-05-21T13:25:52.062Z,30.10
2019-05-21T13:28:23.185Z,30.10
2019-05-21T13:30:53.685Z,30.10
2019-05-21T13:33:24.440Z,30.10
2019-05-21T13:35:56.227Z,30.10
2019-05-21T13:38:27.288Z,30.10
2019-05-21T13:40:58.692Z,30.00
2019-05-21T13:43:29.329Z,30.00
2019-05-21T13:46:00.314Z,30.00
2019-05-21T13:48:30.927Z,29.80
2019-05-21T13:51:01.546Z,29.70
2019-05-21T13:53:32.483Z,29.70
2019-05-21T13:56:03.357Z,29.60
2019-05-21T13:58:33.977Z,29.50
2019-05-21T14:01:05.859Z,29.40
2019-05-21T14:03:36.809Z,29.30
2019-05-21T14:06:07.597Z,29.20
2019-05-21T14:08:38.527Z,29.20
2019-05-21T14:11:09.592Z,29.10
2019-05-21T14:13:40.190Z,29.00
2019-05-21T14:16:11.027Z,29.00
2019-05-21T14:18:41.793Z,29.00
2019-05-21T14:21:12.756Z,29.00
2019-05-21T14:23:43.354Z,29.00
2019-05-21T14:26:14.322Z,29.00
2019-05-21T14:28:45.134Z,29.00
2019-05-21T14:31:16.050Z,29.00
2019-05-21T14:33:47.027Z,29.00
2019-05-21T14:36:17.457Z,29.00
2019-05-21T14:38:48.169Z,28.90
2019-05-21T14:41:18.826Z,28.80
2019-05-21T14:43:49.849Z,28.80
2019-05-21T14:46:20.516Z,28.70
2019-05-21T14:48:50.987Z,28.70
2019-05-21T14:51:21.769Z,28.60
2019-05-21T14:53:53.954Z,28.60
2019-05-21T14:56:24.528Z,28.60
2019-05-21T14:58:55.186Z,28.60
2019-05-21T15:01:26.049Z,28.50
2019-05-21T15:03:56.793Z,28.50
2019-05-21T15:06:27.694Z,28.50
2019-05-21T15:08:59.258Z,28.40
2019-05-21T15:11:29.987Z,28.40
2019-05-21T15:14:01.042Z,28.40
2019-05-21T15:16:32.018Z,28.40
2019-05-21T15:19:03.665Z,28.30
2019-05-21T15:21:39.375Z,28.30
2019-05-21T15:24:10.390Z,28.20
2019-05-21T15:26:41.281Z,28.20
2019-05-21T15:29:12.037Z,28.10
2019-05-21T15:31:42.605Z,28.10
2019-05-21T15:34:13.407Z,28.10
2019-05-21T15:36:44.263Z,28.00
2019-05-21T15:39:15.032Z,28.10
2019-05-21T15:41:45.637Z,28.00
2019-05-21T15:44:16.413Z,28.00
2019-05-21T15:46:50.717Z,28.00
2019-05-21T15:49:34.967Z,27.90
2019-05-21T15:51:53.627Z,27.80
2019-05-21T15:54:24.353Z,27.70
2019-05-21T15:56:54.977Z,27.60
2019-05-21T15:59:25.722Z,27.60
2019-05-21T16:01:56.568Z,27.40
2019-05-21T16:04:27.391Z,27.30
2019-05-21T16:06:58.154Z,27.30
2019-05-21T16:09:29.145Z,27.20
2019-05-21T16:11:59.728Z,27.10
2019-05-21T16:14:30.258Z,27.10
2019-05-21T16:17:00.854Z,27.00
2019-05-21T16:19:31.635Z,27.00
2019-05-21T16:22:02.393Z,27.00
2019-05-21T16:24:33.222Z,27.00
2019-05-21T16:27:03.801Z,27.00
2019-05-21T16:29:34.341Z,27.00
2019-05-21T16:32:05.251Z,26.90
2019-05-21T16:34:35.986Z,26.90
2019-05-21T16:37:07.045Z,26.90
2019-05-21T16:39:37.873Z,26.80
2019-05-21T16:42:08.746Z,26.90
2019-05-21T16:44:39.748Z,26.80
2019-05-21T16:47:10.286Z,26.80
2019-05-21T16:49:41.234Z,26.70
2019-05-21T16:52:12.161Z,26.70
2019-05-21T16:54:42.943Z,26.70
2019-05-21T16:57:13.481Z,26.70
2019-05-21T16:59:44.296Z,26.70
2019-05-21T17:02:15.111Z,26.70
2019-05-21T17:04:45.773Z,26.60
2019-05-21T17:07:16.534Z,26.50
2019-05-21T17:09:47.435Z,26.50
2019-05-21T17:12:18.089Z,26.40
2019-05-21T17:14:50.044Z,26.30
2019-05-21T17:17:21.076Z,26.30
2019-05-21T17:19:51.698Z,26.20
2019-05-21T17:22:22.349Z,26.10
2019-05-21T17:24:53.256Z,26.10
2019-05-21T17:27:23.930Z,25.90
2019-05-21T17:29:54.622Z,25.90
2019-05-21T17:32:25.477Z,25.90
2019-05-21T17:34:56.081Z,25.80
2019-05-21T17:37:26.862Z,25.70
2019-05-21T17:39:57.809Z,25.70
2019-05-21T17:42:28.421Z,25.60
2019-05-21T17:44:59.431Z,25.60
2019-05-21T17:47:30.469Z,25.50
2019-05-21T17:50:01.349Z,25.50
2019-05-21T17:52:32.260Z,25.40
2019-05-21T17:55:02.879Z,25.30
2019-05-21T17:57:34.760Z,25.20
2019-05-21T18:00:07.754Z,25.10
2019-05-21T18:02:39.497Z,25.10
2019-05-21T18:05:11.269Z,25.00
2019-05-21T18:07:42.706Z,24.90
2019-05-21T18:10:16.054Z,24.80
2019-05-21T18:12:47.369Z,24.70
2019-05-21T18:15:18.489Z,24.60
2019-05-21T18:17:49.727Z,24.50
2019-05-21T18:20:21.471Z,24.40
2019-05-21T18:22:56.395Z,24.30
2019-05-21T18:25:27.425Z,24.30
2019-05-21T18:27:57.842Z,24.20
2019-05-21T18:30:28.946Z,24.10
2019-05-21T18:33:00.722Z,24.10
2019-05-21T18:35:31.455Z,24.00
2019-05-21T18:38:02.337Z,23.90
2019-05-21T18:40:33.172Z,23.80
2019-05-21T18:43:04.032Z,23.80
2019-05-21T18:45:34.467Z,23.60
2019-05-21T18:48:05.355Z,23.60
2019-05-21T18:50:37.201Z,23.50
2019-05-21T18:53:09.386Z,23.40
2019-05-21T18:55:40.306Z,23.30
2019-05-21T18:58:11.198Z,23.30
2019-05-21T19:00:41.861Z,23.10
2019-05-21T19:03:13.705Z,23.10
2019-05-21T19:05:44.701Z,23.00
2019-05-21T19:08:15.589Z,22.90
2019-05-21T19:10:46.344Z,22.80
2019-05-21T19:13:17.669Z,22.80
2019-05-21T19:15:48.400Z,22.70
2019-05-21T19:18:19.006Z,22.70
2019-05-21T19:20:50.490Z,22.70
2019-05-21T19:23:21.417Z,22.60
2019-05-21T19:25:52.323Z,22.60
2019-05-21T19:28:23.297Z,22.50
2019-05-21T19:30:54.391Z,22.40
2019-05-21T19:33:25.437Z,22.30
2019-05-21T19:35:55.945Z,22.30
2019-05-21T19:38:26.802Z,22.20
2019-05-21T19:40:57.670Z,22.20
2019-05-21T19:43:28.749Z,22.20
2019-05-21T19:45:59.813Z,22.10
2019-05-21T19:48:30.695Z,22.10
2019-05-21T19:51:01.486Z,22.00
2019-05-21T19:53:32.717Z,22.00
2019-05-21T19:56:03.654Z,21.90
2019-05-21T19:58:34.666Z,21.80
2019-05-21T20:01:05.655Z,21.80
2019-05-21T20:03:36.405Z,21.70
2019-05-21T20:06:07.705Z,21.70
2019-05-21T20:08:38.329Z,21.70
2019-05-21T20:11:09.338Z,21.60
2019-05-21T20:13:39.839Z,21.60
2019-05-21T20:16:11.546Z,21.60
2019-05-21T20:18:42.119Z,21.50
2019-05-21T20:21:14.874Z,21.50
2019-05-21T20:23:47.085Z,21.50
2019-05-21T20:26:19.014Z,21.50
2019-05-21T20:28:50.021Z,21.40
2019-05-21T20:31:22.735Z,21.40
2019-05-21T20:33:53.922Z,21.30
2019-05-21T20:36:25.086Z,21.30
2019-05-21T20:38:56.111Z,21.20
2019-05-21T20:41:27.161Z,21.20
2019-05-21T20:43:59.405Z,21.20
2019-05-21T20:46:31.205Z,21.10
2019-05-21T20:49:02.509Z,21.10
2019-05-21T20:51:34.683Z,21.10
2019-05-21T20:54:08.142Z,21.00
2019-05-21T20:56:45.698Z,21.00
2019-05-21T20:59:16.894Z,20.90
2019-05-21T21:01:47.832Z,20.90
2019-05-21T21:04:18.756Z,20.90
2019-05-21T21:06:50.309Z,20.80
2019-05-21T21:09:21.876Z,20.80
2019-05-21T21:11:52.676Z,20.80
2019-05-21T21:14:24.242Z,20.70
2019-05-21T21:16:56.136Z,20.70
2019-05-21T21:19:27.967Z,20.70
2019-05-21T21:21:58.766Z,20.60
2019-05-21T21:24:30.131Z,20.60
2019-05-21T21:27:00.808Z,20.60
2019-05-21T21:29:31.651Z,20.50
2019-05-21T21:32:02.875Z,20.40
2019-05-21T21:34:33.855Z,20.40
2019-05-21T21:37:05.716Z,20.30
2019-05-21T21:39:37.086Z,20.30
2019-05-21T21:42:09.428Z,20.20
2019-05-21T21:44:40.323Z,20.20
2019-05-21T21:47:11.038Z,20.10
2019-05-21T21:49:42.660Z,20.00
2019-05-21T21:52:15.140Z,20.00
2019-05-21T21:54:46.796Z,20.00
2019-05-21T21:57:17.865Z,19.90
2019-05-21T21:59:48.464Z,19.80
2019-05-21T22:02:28.518Z,19.80
2019-05-21T22:05:00.086Z,19.80
2019-05-21T22:07:31.800Z,19.70
2019-05-21T22:10:02.698Z,19.70
2019-05-21T22:12:34.550Z,19.70
2019-05-21T22:15:06.957Z,19.70
2019-05-21T22:17:37.880Z,19.60
2019-05-21T22:20:08.953Z,19.50
2019-05-21T22:22:39.635Z,19.50
2019-05-21T22:25:11.115Z,19.40
2019-05-21T22:27:42.229Z,19.40
2019-05-21T22:30:13.829Z,19.40
2019-05-21T22:32:44.567Z,19.40
2019-05-21T22:35:15.513Z,19.40
2019-05-21T22:37:45.996Z,19.30
2019-05-21T22:40:16.560Z,19.20
2019-05-21T22:42:47.080Z,19.20
2019-05-21T22:45:17.807Z,19.20
2019-05-21T22:47:48.703Z,19.20
2019-05-21T22:50:19.616Z,19.10
2019-05-21T22:52:50.355Z,19.10
2019-05-21T22:55:21.195Z,19.10
2019-05-21T22:57:52.123Z,19.00
2019-05-21T23:00:23.355Z,19.00
2019-05-21T23:02:54.231Z,18.90
2019-05-21T23:05:25.183Z,18.90
2019-05-21T23:07:56.420Z,18.90
2019-05-21T23:10:26.921Z,18.90
2019-05-21T23:12:57.924Z,18.90
2019-05-21T23:15:28.801Z,18.90
2019-05-21T23:18:15.985Z,18.90
2019-05-21T23:20:57.147Z,18.90
2019-05-21T23:23:31.326Z,18.80
2019-05-21T23:26:02.506Z,18.80
2019-05-21T23:28:33.756Z,18.70
2019-05-21T23:31:06.079Z,18.70
2019-05-21T23:33:37.469Z,18.60
2019-05-21T23:36:08.229Z,18.60
2019-05-21T23:38:40.846Z,18.50
2019-05-21T23:41:11.597Z,18.40
2019-05-21T23:43:42.204Z,18.40
2019-05-21T23:46:14.487Z,18.40
2019-05-21T23:48:45.119Z,18.40
2019-05-21T23:51:15.855Z,18.30
2019-05-21T23:53:47.249Z,18.30
2019-05-21T23:56:18.110Z,18.20
2019-05-21T23:58:49.331Z,18.20
